Time,TemperatureF,DewpointF,PressureIn,WindDirection,WindDirectionDegrees,WindSpeedMPH,WindSpeedGustMPH,Humidity,HourlyPrecipIn,Conditions,Clouds,dailyrainin,SoftwareType,DateUTC
2013-03-10 00:00:00,24.5,21.7,30.36,North,5,0.0,0.0,89,0.00,RA,FEW,0.00,WeatherDisplay:10.37,2013-03-10 05:00:00,
2013-03-10 00:01:00,24.5,21.7,30.36,North,5,0.0,0.0,89,0.00,RA,FEW,0.00,WeatherDisplay:10.37,2013-03-10 05:01:00,
2013-03-10 00:06:00,24.7,22.2,30.36,North,5,0.0,0.0,90,0.00,RA,FEW,0.00,WeatherDisplay:10.37,2013-03-10 05:06:00,
2013-03-10 00:11:00,24.8,22.5,30.36,North,5,0.0,0.0,91,0.00,CLR,FEW,0.00,WeatherDisplay:10.37,2013-03-10 05:11:00,
2013-03-10 00:16:00,24.6,21.8,30.36,North,5,0.0,0.0,89,0.00,CLR,FEW,0.00,WeatherDisplay:10.37,2013-03-10 05:16:00,
2013-03-10 00:21:00,24.2,20.9,30.36,North,5,0.0,0.0,87,0.00,CLR,FEW,0.00,WeatherDisplay:10.37,2013-03-10 05:21:00,
2013-03-10 00:26:00,23.4,19.8,30.36,North,5,0.0,0.0,86,0.00,CLR,FEW,0.00,WeatherDisplay:10.37,2013-03-10 05:26:00,
2013-03-10 00:31:00,23.1,20.1,30.36,North,5,0.0,0.0,88,0.00,CLR,FEW,0.00,WeatherDisplay:10.37,2013-03-10 05:31:00,
2013-03-10 00:36:00,23.1,20.3,30.37,North,5,0.0,0.0,89,0.00,CLR,FEW,0.00,WeatherDisplay:10.37,2013-03-10 05:36:00,
2013-03-10 00:41:00,23.3,21.1,30.37,North,5,0.0,0.0,91,0.00,CLR,FEW,0.00,WeatherDisplay:10.37,2013-03-10 05:41:00,
2013-03-10 00:46:00,23.5,21.3,30.37,North,5,0.0,0.0,91,0.00,CLR,FEW,0.00,WeatherDisplay:10.37,2013-03-10 05:46:00,
2013-03-10 00:51:00,23.3,20.8,30.37,North,5,0.0,0.0,90,0.00,CLR,FEW,0.00,WeatherDisplay:10.37,2013-03-10 05:51:00,
2013-03-10 00:56:00,23.1,20.3,30.37,North,5,0.0,0.0,89,0.00,CLR,FEW,0.00,WeatherDisplay:10.37,2013-03-10 05:56:00,
2013-03-10 01:01:00,23.0,20.5,30.37,North,5,0.0,0.0,90,0.00,CLR,FEW,0.00,WeatherDisplay:10.37,2013-03-10 06:01:00,
2013-03-10 01:06:00,23.5,21.3,30.37,North,5,0.0,0.0,91,0.00,CLR,FEW,0.00,WeatherDisplay:10.37,2013-03-10 06:06:00,
2013-03-10 01:11:00,23.9,21.7,30.37,North,5,0.0,0.0,91,0.00,CLR,FEW,0.00,WeatherDisplay:10.37,2013-03-10 06:11:00,
2013-03-10 01:16:00,24.2,22.0,30.37,North,5,0.0,0.0,91,0.00,CLR,FEW,0.00,WeatherDisplay:10.37,2013-03-10 06:16:00,
2013-03-10 01:21:00,24.3,22.1,30.38,North,5,0.0,0.0,91,0.00,CLR,FEW,0.00,WeatherDisplay:10.37,2013-03-10 06:21:00,
2013-03-10 01:26:00,24.4,22.2,30.38,North,5,0.0,0.0,91,0.00,CLR,FEW,0.00,WeatherDisplay:10.37,2013-03-10 06:26:00,
2013-03-10 01:31:00,24.5,22.2,30.38,North,5,0.0,0.0,91,0.00,CLR,FEW,0.00,WeatherDisplay:10.37,2013-03-10 06:31:00,
2013-03-10 01:36:00,24.8,22.5,30.38,North,5,0.0,0.0,91,0.00,CLR,FEW,0.00,WeatherDisplay:10.37,2013-03-10 06:36:00,
2013-03-10 01:41:00,24.8,22.5,30.38,North,5,0.0,0.0,91,0.00,CLR,FEW,0.00,WeatherDisplay:10.37,2013-03-10 06:41:00,
2013-03-10 01:46:00,24.7,22.2,30.38,North,5,0.0,0.0,90,0.00,CLR,FEW,0.00,WeatherDisplay:10.37,2013-03-10 06:46:00,
2013-03-10 01:51:00,24.4,21.9,30.38,North,5,0.0,0.0,90,0.00,CLR,FEW,0.00,WeatherDisplay:10.37,2013-03-10 06:51:00,
2013-03-10 01:56:00,24.3,22.1,30.38,North,5,0.0,0.0,91,0.00,CLR,FEW,0.00,WeatherDisplay:10.37,2013-03-10 06:56:00,
2013-03-10 03:01:00,24.4,22.2,30.38,North,5,0.0,0.0,91,0.00,CLR,FEW,0.00,WeatherDisplay:10.37,2013-03-10 07:01:00,
2013-03-10 03:06:00,24.1,21.3,30.37,North,5,0.0,0.0,89,0.00,CLR,FEW,0.00,WeatherDisplay:10.37,2013-03-10 07:06:00,
2013-03-10 03:11:00,22.8,19.0,30.37,North,5,0.0,0.0,85,0.00,CLR,FEW,0.00,WeatherDisplay:10.37,2013-03-10 07:11:00,
2013-03-10 03:16:00,21.9,18.4,30.37,North,5,0.0,0.0,86,0.00,CLR,FEW,0.00,WeatherDisplay:10.37,2013-03-10 07:16:00,
2013-03-10 03:21:00,21.5,18.8,30.37,North,5,0.0,0.0,89,0.00,CLR,FEW,0.00,WeatherDisplay:10.37,2013-03-10 07:21:00,
2013-03-10 03:26:00,21.4,18.9,30.36,North,5,0.0,0.0,90,0.00,CLR,FEW,0.00,WeatherDisplay:10.37,2013-03-10 07:26:00,
2013-03-10 03:31:00,21.6,19.6,30.36,North,5,0.0,0.0,92,0.00,CLR,FEW,0.00,WeatherDisplay:10.37,2013-03-10 07:31:00,
2013-03-10 03:36:00,21.8,19.8,30.36,North,5,0.0,0.0,92,0.00,CLR,FEW,0.00,WeatherDisplay:10.37,2013-03-10 07:36:00,
2013-03-10 03:41:00,22.5,20.8,30.36,North,5,0.0,0.0,93,0.00,CLR,FEW,0.00,WeatherDisplay:10.37,2013-03-10 07:41:00,
2013-03-10 03:46:00,23.0,21.5,30.36,North,5,0.0,0.0,94,0.00,CLR,FEW,0.00,WeatherDisplay:10.37,2013-03-10 07:46:00,
2013-03-10 03:51:00,23.4,21.7,30.36,North,5,0.0,0.0,93,0.00,CLR,FEW,0.00,WeatherDisplay:10.37,2013-03-10 07:51:00,
2013-03-10 03:56:00,23.9,22.2,30.36,North,5,0.0,0.0,93,0.00,CLR,FEW,0.00,WeatherDisplay:10.37,2013-03-10 07:56:00,
2013-03-10 04:01:00,24.1,22.1,30.36,North,5,0.0,0.0,92,0.00,CLR,FEW,0.00,WeatherDisplay:10.37,2013-03-10 08:01:00,
2013-03-10 04:06:00,24.2,22.2,30.37,North,5,0.0,0.0,92,0.00,CLR,FEW,0.00,WeatherDisplay:10.37,2013-03-10 08:06:00,
2013-03-10 04:11:00,24.5,22.5,30.37,North,5,0.0,0.0,92,0.00,CLR,FEW,0.00,WeatherDisplay:10.37,2013-03-10 08:11:00,
2013-03-10 04:16:00,24.6,22.3,30.37,North,5,0.0,0.0,91,0.00,CLR,FEW,0.00,WeatherDisplay:10.37,2013-03-10 08:16:00,
2013-03-10 04:21:00,24.8,22.5,30.36,North,5,0.0,0.0,91,0.00,CLR,FEW,0.00,WeatherDisplay:10.37,2013-03-10 08:21:00,
2013-03-10 04:26:00,24.8,22.5,30.37,North,5,0.0,0.0,91,0.00,CLR,FEW,0.00,WeatherDisplay:10.37,2013-03-10 08:26:00,
2013-03-10 04:31:00,24.7,22.4,30.37,North,5,0.0,0.0,91,0.00,CLR,FEW,0.00,WeatherDisplay:10.37,2013-03-10 08:31:00,
2013-03-10 04:36:00,24.7,22.4,30.36,North,5,0.0,0.0,91,0.00,CLR,FEW,0.00,WeatherDisplay:10.37,2013-03-10 08:36:00,
2013-03-10 04:41:00,24.5,22.0,30.36,North,5,0.0,0.0,90,0.00,CLR,FEW,0.00,WeatherDisplay:10.37,2013-03-10 08:41:00,
2013-03-10 04:46:00,24.3,21.8,30.36,North,5,0.0,0.0,90,0.00,CLR,FEW,0.00,WeatherDisplay:10.37,2013-03-10 08:46:00,
2013-03-10 04:51:00,23.9,21.1,30.36,North,5,0.0,0.0,89,0.00,CLR,FEW,0.00,WeatherDisplay:10.37,2013-03-10 08:51:00,
2013-03-10 04:56:00,22.6,18.5,30.37,North,5,0.0,0.0,84,0.00,CLR,FEW,0.00,WeatherDisplay:10.37,2013-03-10 08:56:00,
2013-03-10 05:01:00,21.5,17.7,30.37,North,5,0.0,0.0,85,0.00,CLR,FEW,0.00,WeatherDisplay:10.37,2013-03-10 09:01:00,
2013-03-10 05:06:00,21.1,18.1,30.37,North,5,0.0,0.0,88,0.00,CLR,FEW,0.00,WeatherDisplay:10.37,2013-03-10 09:06:00,
2013-03-10 05:11:00,21.1,18.9,30.37,North,5,0.0,0.0,91,0.00,CLR,FEW,0.00,WeatherDisplay:10.37,2013-03-10 09:11:00,
2013-03-10 05:16:00,21.2,19.2,30.37,North,5,0.0,0.0,92,0.00,CLR,FEW,0.00,WeatherDisplay:10.37,2013-03-10 09:16:00,
2013-03-10 05:21:00,21.1,18.9,30.37,North,5,0.0,0.0,91,0.00,CLR,FEW,0.00,WeatherDisplay:10.37,2013-03-10 09:21:00,
2013-03-10 05:26:00,21.1,19.1,30.37,North,5,0.0,0.0,92,0.00,CLR,FEW,0.00,WeatherDisplay:10.37,2013-03-10 09:26:00,
2013-03-10 05:31:00,21.1,19.1,30.37,North,5,0.0,0.0,92,0.00,CLR,FEW,0.00,WeatherDisplay:10.37,2013-03-10 09:31:00,
2013-03-10 05:36:00,21.1,19.1,30.37,North,5,0.0,0.0,92,0.00,CLR,FEW,0.00,WeatherDisplay:10.37,2013-03-10 09:36:00,
2013-03-10 05:41:00,21.0,19.0,30.37,North,5,0.0,0.0,92,0.00,CLR,FEW,0.00,WeatherDisplay:10.37,2013-03-10 09:41:00,
2013-03-10 05:46:00,20.5,18.0,30.37,North,5,0.0,0.0,90,0.00,CLR,FEW,0.00,WeatherDisplay:10.37,2013-03-10 09:46:00,
2013-03-10 05:51:00,20.2,17.7,30.37,North,5,0.0,0.0,90,0.00,CLR,FEW,0.00,WeatherDisplay:10.37,2013-03-10 09:51:00,
2013-03-10 05:56:00,20.0,17.8,30.37,North,5,0.0,0.0,91,0.00,CLR,FEW,0.00,WeatherDisplay:10.37,2013-03-10 09:56:00,
2013-03-10 06:01:00,20.3,18.3,30.37,North,5,0.0,0.0,92,0.00,CLR,FEW,0.00,WeatherDisplay:10.37,2013-03-10 10:01:00,
2013-03-10 06:06:00,20.7,19.2,30.37,North,5,0.0,0.0,94,0.00,CLR,FEW,0.00,WeatherDisplay:10.37,2013-03-10 10:06:00,
2013-03-10 06:11:00,20.9,19.2,30.37,North,5,0.0,0.0,93,0.00,CLR,FEW,0.00,WeatherDisplay:10.37,2013-03-10 10:11:00,
2013-03-10 06:16:00,21.2,19.7,30.37,North,5,1.2,1.2,94,0.00,CLR,FEW,0.00,WeatherDisplay:10.37,2013-03-10 10:16:00,
2013-03-10 06:21:00,21.0,19.3,30.37,North,5,0.0,0.0,93,0.00,CLR,FEW,0.00,WeatherDisplay:10.37,2013-03-10 10:21:00,
2013-03-10 06:26:00,21.0,19.3,30.37,North,5,0.0,0.0,93,0.00,CLR,FEW,0.00,WeatherDisplay:10.37,2013-03-10 10:26:00,
2013-03-10 06:31:00,21.2,19.5,30.38,North,5,0.0,0.0,93,0.00,CLR,FEW,0.00,WeatherDisplay:10.37,2013-03-10 10:31:00,
2013-03-10 06:36:00,21.1,19.4,30.38,North,5,0.0,0.0,93,0.00,CLR,FEW,0.00,WeatherDisplay:10.37,2013-03-10 10:36:00,
2013-03-10 06:41:00,20.7,18.7,30.38,North,5,0.0,0.0,92,0.00,CLR,FEW,0.00,WeatherDisplay:10.37,2013-03-10 10:41:00,
2013-03-10 06:46:00,20.4,18.4,30.38,North,5,0.0,0.0,92,0.00,CLR,FEW,0.00,WeatherDisplay:10.37,2013-03-10 10:46:00,
2013-03-10 06:51:00,20.1,18.1,30.38,North,5,0.0,0.0,92,0.00,CLR,FEW,0.00,WeatherDisplay:10.37,2013-03-10 10:51:00,
2013-03-10 06:56:00,19.9,18.0,30.38,North,5,0.0,0.0,92,0.00,CLR,FEW,0.00,WeatherDisplay:10.37,2013-03-10 10:56:00,
2013-03-10 07:01:00,19.7,17.8,30.39,North,5,0.0,0.0,92,0.00,CLR,FEW,0.00,WeatherDisplay:10.37,2013-03-10 11:01:00,
2013-03-10 07:06:00,19.8,18.1,30.39,North,5,0.0,0.0,93,0.00,CLR,FEW,0.00,WeatherDisplay:10.37,2013-03-10 11:06:00,
2013-03-10 07:11:00,19.9,18.2,30.39,North,5,0.0,0.0,93,0.00,CLR,FEW,0.00,WeatherDisplay:10.37,2013-03-10 11:11:00,
2013-03-10 07:16:00,19.8,18.1,30.39,North,5,0.0,0.0,93,0.00,CLR,FEW,0.00,WeatherDisplay:10.37,2013-03-10 11:16:00,
2013-03-10 07:21:00,19.5,17.6,30.40,North,5,0.0,0.0,92,0.00,CLR,FEW,0.00,WeatherDisplay:10.37,2013-03-10 11:21:00,
2013-03-10 07:26:00,19.7,18.0,30.40,North,5,0.0,0.0,93,0.00,CLR,FEW,0.00,WeatherDisplay:10.37,2013-03-10 11:26:00,
2013-03-10 07:31:00,19.8,18.1,30.39,North,5,0.0,0.0,93,0.00,CLR,FEW,0.00,WeatherDisplay:10.37,2013-03-10 11:31:00,
2013-03-10 07:36:00,19.3,17.1,30.39,North,5,0.0,0.0,91,0.00,CLR,FEW,0.00,WeatherDisplay:10.37,2013-03-10 11:36:00,
2013-03-10 07:41:00,18.8,16.4,30.39,North,5,0.0,0.0,90,0.00,CLR,FEW,0.00,WeatherDisplay:10.37,2013-03-10 11:41:00,
2013-03-10 07:46:00,18.6,16.4,30.39,North,5,0.0,0.0,91,0.00,CLR,FEW,0.00,WeatherDisplay:10.37,2013-03-10 11:46:00,
2013-03-10 07:51:00,18.2,15.2,30.39,North,5,0.0,0.0,88,0.00,CLR,FEW,0.00,WeatherDisplay:10.37,2013-03-10 11:51:00,
2013-03-10 07:56:00,18.0,15.3,30.39,North,5,0.0,0.0,89,0.00,CLR,FEW,0.00,WeatherDisplay:10.37,2013-03-10 11:56:00,
2013-03-10 08:01:00,18.0,15.6,30.39,North,5,0.0,0.0,90,0.00,CLR,FEW,0.00,WeatherDisplay:10.37,2013-03-10 12:01:00,
2013-03-10 08:06:00,18.5,16.6,30.40,North,5,0.0,0.0,92,0.00,CLR,FEW,0.00,WeatherDisplay:10.37,2013-03-10 12:06:00,
2013-03-10 08:11:00,19.2,17.5,30.40,North,5,0.0,0.0,93,0.00,CLR,FEW,0.00,WeatherDisplay:10.37,2013-03-10 12:11:00,
2013-03-10 08:16:00,19.9,18.2,30.40,North,5,0.0,0.0,93,0.00,CLR,FEW,0.00,WeatherDisplay:10.37,2013-03-10 12:16:00,
2013-03-10 08:21:00,20.4,18.7,30.40,North,5,0.0,0.0,93,0.00,CLR,FEW,0.00,WeatherDisplay:10.37,2013-03-10 12:21:00,
2013-03-10 08:26:00,21.0,19.3,30.40,North,5,0.0,0.0,93,0.00,CLR,FEW,0.00,WeatherDisplay:10.37,2013-03-10 12:26:00,
2013-03-10 08:31:00,21.6,19.4,30.40,North,5,0.0,0.0,91,0.00,CLR,FEW,0.00,WeatherDisplay:10.37,2013-03-10 12:31:00,
2013-03-10 08:36:00,22.3,19.8,30.40,North,5,0.0,0.0,90,0.00,CLR,FEW,0.00,WeatherDisplay:10.37,2013-03-10 12:36:00,
2013-03-10 08:41:00,22.9,19.9,30.40,North,5,0.0,0.1,88,0.00,CLR,FEW,0.00,WeatherDisplay:10.37,2013-03-10 12:41:00,
2013-03-10 08:46:00,23.3,20.3,30.40,North,5,0.0,0.0,88,0.00,CLR,FEW,0.00,WeatherDisplay:10.37,2013-03-10 12:46:00,
2013-03-10 08:51:00,23.7,20.4,30.40,North,5,0.0,0.1,87,0.00,CLR,FEW,0.00,WeatherDisplay:10.37,2013-03-10 12:51:00,
2013-03-10 08:56:00,24.1,20.8,30.40,North,5,0.0,0.0,87,0.00,CLR,FEW,0.00,WeatherDisplay:10.37,2013-03-10 12:56:00,
2013-03-10 09:01:00,25.1,22.3,30.40,North,5,0.0,0.0,89,0.00,CLR,FEW,0.00,WeatherDisplay:10.37,2013-03-10 13:01:00,
2013-03-10 09:06:00,26.7,24.2,30.41,North,5,0.0,0.0,90,0.00,CLR,FEW,0.00,WeatherDisplay:10.37,2013-03-10 13:06:00,
2013-03-10 09:11:00,28.0,24.1,30.41,North,5,0.0,0.0,85,0.00,CLR,FEW,0.00,WeatherDisplay:10.37,2013-03-10 13:11:00,
2013-03-10 09:16:00,28.6,24.4,30.41,North,5,0.0,0.0,84,0.00,CLR,FEW,0.00,WeatherDisplay:10.37,2013-03-10 13:16:00,
2013-03-10 09:21:00,29.2,25.0,30.41,North,5,0.0,0.0,84,0.00,CLR,FEW,0.00,WeatherDisplay:10.37,2013-03-10 13:21:00,
2013-03-10 09:26:00,30.1,25.8,30.41,North,5,0.0,0.0,84,0.00,CLR,FEW,0.00,WeatherDisplay:10.37,2013-03-10 13:26:00,
2013-03-10 09:31:00,31.2,26.6,30.41,North,5,1.2,1.2,83,0.00,CLR,FEW,0.00,WeatherDisplay:10.37,2013-03-10 13:31:00,
2013-03-10 09:36:00,32.7,28.1,30.41,NNE,17,1.2,1.2,83,0.00,CLR,FEW,0.00,WeatherDisplay:10.37,2013-03-10 13:36:00,
2013-03-10 09:41:00,34.2,29.0,30.41,NNE,17,1.2,0.0,81,0.00,CLR,FEW,0.00,WeatherDisplay:10.37,2013-03-10 13:41:00,
2013-03-10 09:46:00,35.2,29.3,30.41,ESE,105,2.3,2.3,79,0.00,CLR,FEW,0.00,WeatherDisplay:10.37,2013-03-10 13:46:00,
2013-03-10 09:51:00,35.6,29.1,30.41,ESE,105,2.3,2.3,77,0.00,CLR,FEW,0.00,WeatherDisplay:10.37,2013-03-10 13:51:00,
2013-03-10 09:56:00,35.8,29.0,30.41,ESE,105,2.3,2.3,76,0.00,CLR,FEW,0.00,WeatherDisplay:10.37,2013-03-10 13:56:00,
2013-03-10 10:01:00,36.1,28.9,30.40,SE,128,4.6,4.6,75,0.00,CLR,FEW,0.00,WeatherDisplay:10.37,2013-03-10 14:01:00,
2013-03-10 10:06:00,36.2,28.7,30.40,SE,128,4.6,4.6,74,0.00,CLR,FEW,0.00,WeatherDisplay:10.37,2013-03-10 14:06:00,
2013-03-10 10:11:00,36.6,28.8,30.40,SE,128,1.2,1.2,73,0.00,CLR,FEW,0.00,WeatherDisplay:10.37,2013-03-10 14:11:00,
2013-03-10 10:16:00,36.6,28.8,30.40,SE,128,2.3,2.3,73,0.00,CLR,FEW,0.00,WeatherDisplay:10.37,2013-03-10 14:16:00,
2013-03-10 10:21:00,37.0,28.8,30.40,SE,128,2.3,2.3,72,0.00,CLR,FEW,0.00,WeatherDisplay:10.37,2013-03-10 14:21:00,
2013-03-10 10:26:00,37.1,28.2,30.40,East,101,2.3,2.3,70,0.00,CLR,FEW,0.00,WeatherDisplay:10.37,2013-03-10 14:26:00,
2013-03-10 10:31:00,37.2,28.3,30.40,East,87,1.2,1.2,70,0.00,CLR,FEW,0.00,WeatherDisplay:10.37,2013-03-10 14:31:00,
2013-03-10 10:36:00,37.4,28.5,30.41,East,87,1.2,0.0,70,0.00,CLR,FEW,0.00,WeatherDisplay:10.37,2013-03-10 14:36:00,
2013-03-10 10:41:00,37.8,28.5,30.41,NE,51,1.2,1.2,69,0.00,CLR,FEW,0.00,WeatherDisplay:10.37,2013-03-10 14:41:00,
2013-03-10 10:46:00,37.9,28.3,30.40,NE,38,2.3,2.3,68,0.00,CLR,FEW,0.00,WeatherDisplay:10.37,2013-03-10 14:46:00,
2013-03-10 10:51:00,38.0,28.0,30.40,NE,38,1.2,0.0,67,0.00,CLR,FEW,0.00,WeatherDisplay:10.37,2013-03-10 14:51:00,
2013-03-10 10:56:00,38.2,28.2,30.40,ESE,113,0.0,0.0,67,0.00,CLR,FEW,0.00,WeatherDisplay:10.37,2013-03-10 14:56:00,
2013-03-10 11:01:00,38.4,28.4,30.39,NNE,32,3.5,3.5,67,0.00,CLR,FEW,0.00,WeatherDisplay:10.37,2013-03-10 15:01:00,
2013-03-10 11:06:00,38.7,28.3,30.39,East,91,3.5,3.5,66,0.00,CLR,FEW,0.00,WeatherDisplay:10.37,2013-03-10 15:06:00,
2013-03-10 11:11:00,38.7,27.9,30.39,ENE,69,3.5,3.5,65,0.00,CLR,FEW,0.00,WeatherDisplay:10.37,2013-03-10 15:11:00,
2013-03-10 11:16:00,39.0,28.2,30.39,East,80,2.3,2.3,65,0.00,CLR,FEW,0.00,WeatherDisplay:10.37,2013-03-10 15:16:00,
2013-03-10 11:21:00,39.3,28.1,30.38,ENE,67,3.5,3.5,64,0.00,CLR,FEW,0.00,WeatherDisplay:10.37,2013-03-10 15:21:00,
2013-03-10 11:26:00,39.3,28.1,30.38,East,82,3.5,3.5,64,0.00,CLR,FEW,0.00,WeatherDisplay:10.37,2013-03-10 15:26:00,
2013-03-10 11:31:00,39.7,28.5,30.38,East,82,2.3,2.3,64,0.00,CLR,FEW,0.00,WeatherDisplay:10.37,2013-03-10 15:31:00,
2013-03-10 11:36:00,40.0,28.8,30.38,NE,51,3.5,3.5,64,0.00,CLR,FEW,0.00,WeatherDisplay:10.37,2013-03-10 15:36:00,
2013-03-10 11:41:00,40.3,29.1,30.38,NE,52,3.0,3.0,64,0.00,CLR,FEW,0.00,WeatherDisplay:10.37,2013-03-10 15:41:00,
2013-03-10 11:46:00,40.6,28.6,30.37,East,88,4.6,4.6,62,0.00,CLR,FEW,0.00,WeatherDisplay:10.37,2013-03-10 15:46:00,
2013-03-10 11:51:00,40.8,28.4,30.37,NE,51,3.5,3.5,61,0.00,CLR,FEW,0.00,WeatherDisplay:10.37,2013-03-10 15:51:00,
2013-03-10 11:56:00,41.1,27.9,30.37,East,80,3.5,3.5,59,0.00,CLR,FEW,0.00,WeatherDisplay:10.37,2013-03-10 15:56:00,
2013-03-10 12:01:00,41.2,28.4,30.36,ENE,69,4.0,4.0,60,0.00,CLR,FEW,0.00,WeatherDisplay:10.37,2013-03-10 16:01:00,
2013-03-10 12:06:00,41.4,27.7,30.36,East,88,3.5,3.5,58,0.00,CLR,FEW,0.00,WeatherDisplay:10.37,2013-03-10 16:06:00,
2013-03-10 12:11:00,41.7,28.0,30.36,SE,134,4.6,4.6,58,0.00,CLR,FEW,0.00,WeatherDisplay:10.37,2013-03-10 16:11:00,
2013-03-10 12:16:00,42.2,27.6,30.37,SE,129,2.3,2.3,56,0.00,CLR,FEW,0.00,WeatherDisplay:10.37,2013-03-10 16:16:00,
2013-03-10 12:21:00,42.7,28.1,30.37,SE,129,2.3,0.0,56,0.00,CLR,FEW,0.00,WeatherDisplay:10.37,2013-03-10 16:21:00,
2013-03-10 12:26:00,43.1,28.0,30.37,ESE,121,3.5,3.5,55,0.00,CLR,FEW,0.00,WeatherDisplay:10.37,2013-03-10 16:26:00,
2013-03-10 12:31:00,43.5,28.4,30.37,ESE,121,3.5,3.5,55,0.00,CLR,FEW,0.00,WeatherDisplay:10.37,2013-03-10 16:31:00,
2013-03-10 12:36:00,43.9,28.3,30.37,ENE,59,4.6,4.6,54,0.00,CLR,FEW,0.00,WeatherDisplay:10.37,2013-03-10 16:36:00,
2013-03-10 12:41:00,44.2,28.1,30.37,East,79,2.3,2.3,53,0.00,CLR,FEW,0.00,WeatherDisplay:10.37,2013-03-10 16:41:00,
2013-03-10 12:46:00,44.7,28.1,30.37,SSW,205,4.6,4.6,52,0.00,CLR,FEW,0.00,WeatherDisplay:10.37,2013-03-10 16:46:00,
2013-03-10 12:51:00,45.0,27.5,30.37,South,179,3.5,3.5,50,0.00,CLR,FEW,0.00,WeatherDisplay:10.37,2013-03-10 16:51:00,
2013-03-10 12:56:00,45.1,27.1,30.37,East,98,2.3,2.3,49,0.00,CLR,FEW,0.00,WeatherDisplay:10.37,2013-03-10 16:56:00,
2013-03-10 13:01:00,45.3,26.7,30.37,SE,132,3.5,3.5,48,0.00,CLR,FEW,0.00,WeatherDisplay:10.37,2013-03-10 17:01:00,
2013-03-10 13:06:00,45.6,26.5,30.36,ENE,69,4.0,4.0,47,0.00,CLR,FEW,0.00,WeatherDisplay:10.37,2013-03-10 17:06:00,
2013-03-10 13:11:00,45.1,26.6,30.36,East,80,3.5,3.5,48,0.00,CLR,FEW,0.00,WeatherDisplay:10.37,2013-03-10 17:11:00,
2013-03-10 13:16:00,45.1,27.1,30.36,NE,50,2.0,2.0,49,0.00,CLR,FEW,0.00,WeatherDisplay:10.37,2013-03-10 17:16:00,
2013-03-10 13:21:00,45.2,27.6,30.36,ESE,114,2.3,2.3,50,0.00,CLR,FEW,0.00,WeatherDisplay:10.37,2013-03-10 17:21:00,
2013-03-10 13:26:00,45.6,27.5,30.36,ESE,114,2.0,2.0,49,0.00,CLR,FEW,0.00,WeatherDisplay:10.37,2013-03-10 17:26:00,
2013-03-10 13:31:00,46.4,29.2,30.36,East,81,4.0,4.0,51,0.00,CLR,FEW,0.00,WeatherDisplay:10.37,2013-03-10 17:31:00,
2013-03-10 13:36:00,46.7,29.0,30.36,SE,133,4.6,4.6,50,0.00,CLR,FEW,0.00,WeatherDisplay:10.37,2013-03-10 17:36:00,
2013-03-10 13:41:00,47.3,30.1,30.35,South,169,4.0,4.0,51,0.00,CLR,FEW,0.00,WeatherDisplay:10.37,2013-03-10 17:41:00,
2013-03-10 13:46:00,47.6,29.4,30.35,East,90,4.0,4.0,49,0.00,CLR,FEW,0.00,WeatherDisplay:10.37,2013-03-10 17:46:00,
2013-03-10 13:51:00,47.8,29.0,30.34,ESE,103,3.5,3.5,48,0.00,CLR,FEW,0.00,WeatherDisplay:10.37,2013-03-10 17:51:00,
2013-03-10 13:56:00,47.4,28.7,30.34,East,80,4.6,4.6,48,0.00,CLR,FEW,0.00,WeatherDisplay:10.37,2013-03-10 17:56:00,
2013-03-10 14:01:00,47.4,28.7,30.34,NNE,26,4.6,4.6,48,0.00,CLR,FEW,0.00,WeatherDisplay:10.37,2013-03-10 18:01:00,
2013-03-10 14:06:00,47.0,28.3,30.34,ESE,111,6.9,6.9,48,0.00,CLR,FEW,0.00,WeatherDisplay:10.37,2013-03-10 18:06:00,
2013-03-10 14:11:00,47.0,28.8,30.34,East,97,3.5,3.5,49,0.00,CLR,FEW,0.00,WeatherDisplay:10.37,2013-03-10 18:11:00,
2013-03-10 14:15:00,47.3,29.6,30.34,ESE,119,2.3,0.0,50,0.00,CLR,FEW,0.00,WeatherDisplay:10.37,2013-03-10 18:15:00,
2013-03-10 14:20:00,47.9,28.1,30.33,SE,126,4.6,4.6,46,0.00,CLR,FEW,0.00,WeatherDisplay:10.37,2013-03-10 18:20:00,
2013-03-10 14:25:00,48.4,28.5,30.33,SE,126,1.0,1.0,46,0.00,CLR,FEW,0.00,WeatherDisplay:10.37,2013-03-10 18:25:00,
2013-03-10 14:30:00,48.9,28.5,30.33,South,177,1.2,1.2,45,0.00,CLR,FEW,0.00,WeatherDisplay:10.37,2013-03-10 18:30:00,
2013-03-10 14:35:00,49.3,28.3,30.33,ESE,121,3.5,3.5,44,0.00,CLR,FEW,0.00,WeatherDisplay:10.37,2013-03-10 18:35:00,
2013-03-10 14:40:00,49.1,27.5,30.33,SW,215,4.6,4.6,43,0.00,CLR,FEW,0.00,WeatherDisplay:10.37,2013-03-10 18:40:00,
2013-03-10 14:45:00,49.1,26.4,30.33,South,184,2.0,2.0,41,0.00,CLR,FEW,0.00,WeatherDisplay:10.37,2013-03-10 18:45:00,
2013-03-10 14:50:00,49.2,26.5,30.32,ESE,111,2.0,2.0,41,0.00,CLR,FEW,0.00,WeatherDisplay:10.37,2013-03-10 18:50:00,
2013-03-10 14:55:00,49.1,27.5,30.32,South,183,3.5,3.5,43,0.00,CLR,FEW,0.00,WeatherDisplay:10.37,2013-03-10 18:55:00,
2013-03-10 15:00:00,49.2,27.6,30.32,South,183,3.5,3.5,43,0.00,CLR,FEW,0.00,WeatherDisplay:10.37,2013-03-10 19:00:00,
2013-03-10 15:05:00,49.0,28.6,30.32,SSE,158,3.5,3.5,45,0.00,CLR,FEW,0.00,WeatherDisplay:10.37,2013-03-10 19:05:00,
2013-03-10 15:10:00,48.0,28.2,30.32,East,80,3.5,3.5,46,0.00,CLR,FEW,0.00,WeatherDisplay:10.37,2013-03-10 19:10:00,
2013-03-10 15:15:00,47.2,28.5,30.32,East,86,3.5,3.5,48,0.00,CLR,FEW,0.00,WeatherDisplay:10.37,2013-03-10 19:15:00,
2013-03-10 15:20:00,46.9,28.2,30.32,East,86,1.2,1.2,48,0.00,CLR,FEW,0.00,WeatherDisplay:10.37,2013-03-10 19:20:00,
2013-03-10 15:25:00,46.9,28.2,30.32,SW,236,3.5,3.5,48,0.00,CLR,FEW,0.00,WeatherDisplay:10.37,2013-03-10 19:25:00,
2013-03-10 15:31:00,46.7,28.5,30.32,East,96,2.3,2.3,49,0.00,CLR,FEW,0.00,WeatherDisplay:10.37,2013-03-10 19:31:00,
2013-03-10 15:36:00,46.8,29.1,30.32,SE,136,1.2,0.0,50,0.00,CLR,FEW,0.00,WeatherDisplay:10.37,2013-03-10 19:36:00,
2013-03-10 15:41:00,46.9,28.7,30.32,East,99,3.5,3.5,49,0.00,CLR,FEW,0.00,WeatherDisplay:10.37,2013-03-10 19:41:00,
2013-03-10 15:45:00,47.0,29.3,30.32,East,99,1.2,1.2,50,0.00,CLR,FEW,0.00,WeatherDisplay:10.37,2013-03-10 19:45:00,
2013-03-10 15:50:00,47.2,29.0,30.32,ESE,117,2.3,2.3,49,0.00,CLR,FEW,0.00,WeatherDisplay:10.37,2013-03-10 19:50:00,
2013-03-10 15:55:00,47.3,28.6,30.32,SE,130,5.0,5.0,48,0.00,CLR,FEW,0.00,WeatherDisplay:10.37,2013-03-10 19:55:00,
2013-03-10 16:00:00,47.6,29.9,30.31,East,98,5.0,5.0,50,0.00,CLR,FEW,0.00,WeatherDisplay:10.37,2013-03-10 20:00:00,
2013-03-10 16:05:00,47.7,28.4,30.31,ESE,103,2.3,2.3,47,0.00,CLR,FEW,0.00,WeatherDisplay:10.37,2013-03-10 20:05:00,
2013-03-10 16:10:00,47.7,30.0,30.31,SE,130,4.6,4.6,50,0.00,CLR,FEW,0.00,WeatherDisplay:10.37,2013-03-10 20:10:00,
2013-03-10 16:15:00,47.3,28.6,30.31,South,186,3.0,3.0,48,0.00,CLR,FEW,0.00,WeatherDisplay:10.37,2013-03-10 20:15:00,
2013-03-10 16:20:00,47.0,28.8,30.31,South,186,3.5,3.5,49,0.00,CLR,FEW,0.00,WeatherDisplay:10.37,2013-03-10 20:20:00,
2013-03-10 16:25:00,47.0,29.3,30.30,South,186,0.0,0.0,50,0.00,CLR,FEW,0.00,WeatherDisplay:10.37,2013-03-10 20:25:00,
2013-03-10 16:30:00,46.9,28.7,30.31,SSE,167,4.6,0.0,49,0.00,CLR,FEW,0.00,WeatherDisplay:10.37,2013-03-10 20:30:00,
2013-03-10 16:35:00,46.5,28.3,30.31,ESE,106,3.5,3.5,49,0.00,CLR,FEW,0.00,WeatherDisplay:10.37,2013-03-10 20:35:00,
2013-03-10 16:40:00,46.5,28.8,30.31,ESE,113,5.8,5.8,50,0.00,CLR,FEW,0.00,WeatherDisplay:10.37,2013-03-10 20:40:00,
2013-03-10 16:46:00,46.5,28.3,30.31,East,85,1.2,1.2,49,0.00,CLR,FEW,0.00,WeatherDisplay:10.37,2013-03-10 20:46:00,
2013-03-10 16:51:00,46.3,30.1,30.31,SE,145,3.5,3.5,53,0.00,CLR,FEW,0.00,WeatherDisplay:10.37,2013-03-10 20:51:00,
2013-03-10 16:56:00,46.0,29.8,30.31,SSE,159,3.5,3.5,53,0.00,CLR,FEW,0.00,WeatherDisplay:10.37,2013-03-10 20:56:00,
2013-03-10 17:01:00,45.6,28.5,30.31,SSE,159,2.3,2.3,51,0.00,CLR,FEW,0.00,WeatherDisplay:10.37,2013-03-10 21:01:00,
2013-03-10 17:06:00,45.2,29.5,30.31,SSE,159,2.3,2.3,54,0.00,CLR,FEW,0.00,WeatherDisplay:10.37,2013-03-10 21:06:00,
2013-03-10 17:11:00,44.8,28.2,30.31,SSE,159,2.3,2.3,52,0.00,CLR,FEW,0.00,WeatherDisplay:10.37,2013-03-10 21:11:00,
2013-03-10 17:15:00,44.8,28.7,30.31,SE,128,4.0,4.0,53,0.00,CLR,FEW,0.00,WeatherDisplay:10.37,2013-03-10 21:15:00,
2013-03-10 17:20:00,44.9,28.8,30.30,SE,128,1.2,0.0,53,0.00,CLR,FEW,0.00,WeatherDisplay:10.37,2013-03-10 21:20:00,
2013-03-10 17:25:00,44.7,28.1,30.30,SE,128,1.2,1.2,52,0.00,CLR,FEW,0.00,WeatherDisplay:10.37,2013-03-10 21:25:00,
2013-03-10 17:30:00,44.2,30.3,30.30,SE,128,1.2,1.2,58,0.00,CLR,FEW,0.00,WeatherDisplay:10.37,2013-03-10 21:30:00,
2013-03-10 17:35:00,43.8,30.0,30.30,SE,128,2.0,2.0,58,0.00,CLR,FEW,0.00,WeatherDisplay:10.37,2013-03-10 21:35:00,
2013-03-10 17:41:00,43.6,28.5,30.30,SE,128,2.3,2.3,55,0.00,CLR,FEW,0.00,WeatherDisplay:10.37,2013-03-10 21:41:00,
2013-03-10 17:46:00,43.5,29.3,30.29,SE,132,2.3,2.3,57,0.00,CLR,FEW,0.00,WeatherDisplay:10.37,2013-03-10 21:46:00,
2013-03-10 17:51:00,43.3,29.5,30.29,ESE,123,0.0,0.0,58,0.00,CLR,FEW,0.00,WeatherDisplay:10.37,2013-03-10 21:51:00,
2013-03-10 17:56:00,42.8,29.0,30.29,ESE,123,2.3,2.3,58,0.00,CLR,FEW,0.00,WeatherDisplay:10.37,2013-03-10 21:56:00,
2013-03-10 18:01:00,42.4,29.9,30.29,ESE,123,0.0,0.0,61,0.00,CLR,FEW,0.00,WeatherDisplay:10.37,2013-03-10 22:01:00,
2013-03-10 18:06:00,42.0,29.5,30.29,ESE,123,0.0,0.0,61,0.00,CLR,FEW,0.00,WeatherDisplay:10.37,2013-03-10 22:06:00,
2013-03-10 18:11:00,41.7,28.8,30.30,ESE,123,4.0,4.0,60,0.00,CLR,FEW,0.00,WeatherDisplay:10.37,2013-03-10 22:11:00,
2013-03-10 18:16:00,41.8,29.3,30.30,SE,144,1.2,1.2,61,0.00,CLR,FEW,0.00,WeatherDisplay:10.37,2013-03-10 22:16:00,
2013-03-10 18:21:00,41.8,28.9,30.29,SE,144,1.2,0.0,60,0.00,CLR,FEW,0.00,WeatherDisplay:10.37,2013-03-10 22:21:00,
2013-03-10 18:26:00,41.8,29.7,30.29,SE,144,1.2,0.0,62,0.00,CLR,FEW,0.00,WeatherDisplay:10.37,2013-03-10 22:26:00,
2013-03-10 18:31:00,41.8,29.7,30.29,SE,144,1.2,1.2,62,0.00,CLR,FEW,0.00,WeatherDisplay:10.37,2013-03-10 22:31:00,
2013-03-10 18:36:00,41.9,29.0,30.30,SE,144,2.3,2.3,60,0.00,CLR,FEW,0.00,WeatherDisplay:10.37,2013-03-10 22:36:00,
2013-03-10 18:40:00,41.9,29.8,30.30,SE,144,1.2,0.0,62,0.00,CLR,FEW,0.00,WeatherDisplay:10.37,2013-03-10 22:40:00,
2013-03-10 18:45:00,41.6,30.3,30.30,SE,144,0.0,0.0,64,0.00,CLR,FEW,0.00,WeatherDisplay:10.37,2013-03-10 22:45:00,
2013-03-10 18:50:00,41.2,29.9,30.30,SE,144,0.0,0.0,64,0.00,CLR,FEW,0.00,WeatherDisplay:10.37,2013-03-10 22:50:00,
2013-03-10 18:56:00,40.7,29.5,30.30,SE,144,0.0,0.0,64,0.00,CLR,FEW,0.00,WeatherDisplay:10.37,2013-03-10 22:56:00,
2013-03-10 19:02:00,40.5,29.3,30.30,SE,144,2.3,2.3,64,0.00,CLR,FEW,0.00,WeatherDisplay:10.37,2013-03-10 23:02:00,
2013-03-10 19:07:00,40.4,29.9,30.31,SE,144,0.0,0.0,66,0.00,CLR,FEW,0.00,WeatherDisplay:10.37,2013-03-10 23:07:00,
2013-03-10 19:12:00,40.1,29.6,30.32,SE,144,1.2,1.2,66,0.00,CLR,FEW,0.00,WeatherDisplay:10.37,2013-03-10 23:12:00,
2013-03-10 19:17:00,39.6,29.2,30.32,SE,144,0.0,0.0,66,0.00,CLR,FEW,0.00,WeatherDisplay:10.37,2013-03-10 23:17:00,
2013-03-10 19:22:00,39.4,29.3,30.31,SE,144,1.2,1.2,67,0.00,CLR,FEW,0.00,WeatherDisplay:10.37,2013-03-10 23:22:00,
2013-03-10 19:27:00,39.6,29.9,30.31,SE,144,2.3,2.3,68,0.00,CLR,FEW,0.00,WeatherDisplay:10.37,2013-03-10 23:27:00,
2013-03-10 19:32:00,39.7,30.0,30.32,SE,144,0.0,0.1,68,0.00,CLR,FEW,0.00,WeatherDisplay:10.37,2013-03-10 23:32:00,
2013-03-10 19:37:00,39.5,29.8,30.32,SE,144,1.2,1.2,68,0.00,CLR,FEW,0.00,WeatherDisplay:10.37,2013-03-10 23:37:00,
2013-03-10 19:42:00,39.3,29.6,30.32,SE,144,1.2,0.0,68,0.00,CLR,FEW,0.00,WeatherDisplay:10.37,2013-03-10 23:42:00,
2013-03-10 19:47:00,39.0,30.0,30.32,SE,144,0.0,0.0,70,0.00,CLR,FEW,0.00,WeatherDisplay:10.37,2013-03-10 23:47:00,
2013-03-10 19:52:00,38.8,29.5,30.32,SE,144,0.0,0.0,69,0.00,CLR,FEW,0.00,WeatherDisplay:10.37,2013-03-10 23:52:00,
2013-03-10 19:57:00,38.7,29.8,30.32,SE,144,0.0,0.0,70,0.00,CLR,FEW,0.00,WeatherDisplay:10.37,2013-03-10 23:57:00,
2013-03-10 20:02:00,38.6,29.3,30.32,SE,144,1.2,1.2,69,0.00,CLR,FEW,0.00,WeatherDisplay:10.37,2013-03-11 00:02:00,
2013-03-10 20:07:00,38.6,29.7,30.31,SE,144,0.0,0.0,70,0.00,CLR,FEW,0.00,WeatherDisplay:10.37,2013-03-11 00:07:00,
2013-03-10 20:12:00,38.6,29.3,30.31,SE,144,0.0,0.0,69,0.00,CLR,FEW,0.00,WeatherDisplay:10.37,2013-03-11 00:12:00,
2013-03-10 20:17:00,38.6,29.7,30.31,SE,144,0.0,0.0,70,0.00,CLR,FEW,0.00,WeatherDisplay:10.37,2013-03-11 00:17:00,
2013-03-10 20:22:00,38.5,29.6,30.31,SE,144,0.0,0.0,70,0.00,CLR,FEW,0.00,WeatherDisplay:10.37,2013-03-11 00:22:00,
2013-03-10 20:27:00,38.3,29.7,30.31,SE,144,1.2,1.2,71,0.00,CLR,FEW,0.00,WeatherDisplay:10.37,2013-03-11 00:27:00,
2013-03-10 20:32:00,38.3,29.4,30.31,SE,144,1.2,1.2,70,0.00,CLR,FEW,0.00,WeatherDisplay:10.37,2013-03-11 00:32:00,
2013-03-10 20:37:00,38.2,29.6,30.31,SE,144,2.3,2.3,71,0.00,CLR,FEW,0.00,WeatherDisplay:10.37,2013-03-11 00:37:00,
2013-03-10 20:42:00,38.0,29.8,30.31,SE,144,1.2,0.0,72,0.00,CLR,FEW,0.00,WeatherDisplay:10.37,2013-03-11 00:42:00,
2013-03-10 20:47:00,37.9,29.7,30.30,SE,144,0.0,0.0,72,0.00,CLR,FEW,0.00,WeatherDisplay:10.37,2013-03-11 00:47:00,
2013-03-10 20:53:00,37.9,30.0,30.30,SE,144,0.0,0.0,73,0.00,CLR,FEW,0.00,WeatherDisplay:10.37,2013-03-11 00:53:00,
2013-03-10 20:58:00,37.8,29.9,30.30,SE,144,2.3,2.3,73,0.00,CLR,FEW,0.00,WeatherDisplay:10.37,2013-03-11 00:58:00,
2013-03-10 21:03:00,37.7,29.8,30.30,SE,144,0.0,0.0,73,0.00,CLR,FEW,0.00,WeatherDisplay:10.37,2013-03-11 01:03:00,
2013-03-10 21:08:00,37.6,29.7,30.30,SE,144,0.0,0.0,73,0.00,CLR,FEW,0.00,WeatherDisplay:10.37,2013-03-11 01:08:00,
2013-03-10 21:13:00,37.5,29.6,30.30,SE,144,1.2,1.2,73,0.00,CLR,FEW,0.00,WeatherDisplay:10.37,2013-03-11 01:13:00,
2013-03-10 21:18:00,37.4,29.5,30.30,SE,144,2.0,2.0,73,0.00,CLR,FEW,0.00,WeatherDisplay:10.37,2013-03-11 01:18:00,
2013-03-10 21:23:00,37.4,29.9,30.30,SE,144,1.2,1.2,74,0.00,CLR,FEW,0.00,WeatherDisplay:10.37,2013-03-11 01:23:00,
2013-03-10 21:28:00,37.3,29.8,30.30,SE,144,2.3,2.3,74,0.00,CLR,FEW,0.00,WeatherDisplay:10.37,2013-03-11 01:28:00,
2013-03-10 21:33:00,37.3,29.8,30.30,SE,144,2.3,2.3,74,0.00,CLR,FEW,0.00,WeatherDisplay:10.37,2013-03-11 01:33:00,
2013-03-10 21:38:00,37.1,30.2,30.30,NNW,333,4.6,4.6,76,0.00,CLR,FEW,0.00,WeatherDisplay:10.37,2013-03-11 01:38:00,
2013-03-10 21:43:00,37.0,29.8,30.31,NW,315,0.0,0.0,75,0.00,CLR,FEW,0.00,WeatherDisplay:10.37,2013-03-11 01:43:00,
2013-03-10 21:48:00,37.0,30.1,30.30,North,360,1.0,0.0,76,0.00,CLR,FEW,0.00,WeatherDisplay:10.37,2013-03-11 01:48:00,
2013-03-10 21:53:00,36.9,30.4,30.30,North,360,1.2,0.0,77,0.00,CLR,FEW,0.00,WeatherDisplay:10.37,2013-03-11 01:53:00,
2013-03-10 21:58:00,36.6,30.4,30.31,North,360,0.0,0.0,78,0.00,CLR,FEW,0.00,WeatherDisplay:10.37,2013-03-11 01:58:00,
2013-03-10 22:03:00,36.4,29.9,30.31,North,360,0.0,0.0,77,0.00,CLR,FEW,0.00,WeatherDisplay:10.37,2013-03-11 02:03:00,
2013-03-10 22:08:00,36.5,30.0,30.31,North,360,1.2,0.0,77,0.00,CLR,FEW,0.00,WeatherDisplay:10.37,2013-03-11 02:08:00,
2013-03-10 22:13:00,36.5,30.0,30.30,NE,47,0.0,0.0,77,0.00,CLR,FEW,0.00,WeatherDisplay:10.37,2013-03-11 02:13:00,
2013-03-10 22:18:00,36.4,30.2,30.31,NE,47,1.2,0.0,78,0.00,CLR,FEW,0.00,WeatherDisplay:10.37,2013-03-11 02:18:00,
2013-03-10 22:23:00,36.4,30.5,30.30,NE,47,0.0,0.1,79,0.00,CLR,FEW,0.00,WeatherDisplay:10.37,2013-03-11 02:23:00,
2013-03-10 22:28:00,36.3,30.1,30.30,ENE,74,0.0,0.1,78,0.00,CLR,FEW,0.00,WeatherDisplay:10.37,2013-03-11 02:28:00,
2013-03-10 22:33:00,36.2,30.3,30.30,ENE,74,1.2,0.0,79,0.00,CLR,FEW,0.00,WeatherDisplay:10.37,2013-03-11 02:33:00,
2013-03-10 22:38:00,36.1,30.2,30.30,ENE,74,0.0,0.0,79,0.00,CLR,FEW,0.00,WeatherDisplay:10.37,2013-03-11 02:38:00,
2013-03-10 22:43:00,36.0,30.4,30.29,ENE,74,1.2,0.0,80,0.00,CLR,FEW,0.00,WeatherDisplay:10.37,2013-03-11 02:43:00,
2013-03-10 22:49:00,35.9,30.3,30.30,NNW,335,3.5,3.5,80,0.00,CLR,FEW,0.00,WeatherDisplay:10.37,2013-03-11 02:49:00,
2013-03-10 22:54:00,36.0,30.4,30.30,NNE,22,0.0,0.0,80,0.00,CLR,FEW,0.00,WeatherDisplay:10.37,2013-03-11 02:54:00,
2013-03-10 22:58:00,36.1,30.5,30.30,NNE,22,0.0,0.0,80,0.00,CLR,FEW,0.00,WeatherDisplay:10.37,2013-03-11 02:58:00,
2013-03-10 23:03:00,35.9,30.6,30.29,NNE,22,0.0,0.0,81,0.00,CLR,FEW,0.00,WeatherDisplay:10.37,2013-03-11 03:03:00,
2013-03-10 23:08:00,35.6,30.6,30.29,NNE,22,0.0,0.0,82,0.00,CLR,FEW,0.00,WeatherDisplay:10.37,2013-03-11 03:08:00,
2013-03-10 23:13:00,35.5,30.5,30.29,NNE,22,0.0,0.0,82,0.00,CLR,FEW,0.00,WeatherDisplay:10.37,2013-03-11 03:13:00,
2013-03-10 23:18:00,35.2,30.6,30.28,NNE,22,0.0,0.0,83,0.00,CLR,FEW,0.00,WeatherDisplay:10.37,2013-03-11 03:18:00,
2013-03-10 23:24:00,35.0,30.4,30.29,NNE,22,0.0,0.0,83,0.00,CLR,FEW,0.00,WeatherDisplay:10.37,2013-03-11 03:24:00,
2013-03-10 23:29:00,35.0,30.4,30.29,NNE,22,0.0,0.0,83,0.00,CLR,FEW,0.00,WeatherDisplay:10.37,2013-03-11 03:29:00,
2013-03-10 23:34:00,34.9,30.6,30.29,NNE,22,0.0,0.0,84,0.00,CLR,FEW,0.00,WeatherDisplay:10.37,2013-03-11 03:34:00,
2013-03-10 23:39:00,34.8,30.2,30.29,NNE,22,0.0,0.0,83,0.00,CLR,FEW,0.00,WeatherDisplay:10.37,2013-03-11 03:39:00,
2013-03-10 23:44:00,34.8,30.5,30.29,NNE,22,0.0,0.0,84,0.00,CLR,FEW,0.00,WeatherDisplay:10.37,2013-03-11 03:44:00,
2013-03-10 23:49:00,34.7,30.4,30.29,NNE,22,0.0,0.0,84,0.00,CLR,FEW,0.00,WeatherDisplay:10.37,2013-03-11 03:49:00,
2013-03-10 23:54:00,34.6,30.3,30.30,NNE,22,0.0,0.0,84,0.00,CLR,FEW,0.00,WeatherDisplay:10.37,2013-03-11 03:54:00,
2013-03-10 23:59:00,34.4,30.4,30.30,NNE,22,0.0,0.0,85,0.00,CLR,FEW,0.00,WeatherDisplay:10.37,2013-03-11 03:59:00,